Time;durP1;ratioP1;P1;durP2;ratioP2;P2;SDS_P1;SDS_P2;PMS_P1;PMS_P2;Temp;Humidity;BMP_temperature;BMP_pressure;BME280_temperature;BME280_humidity;BME280_pressure;Samples;Min_cycle;Max_cycle;Signal;HPM_P1;HPM_P2
2023/01/27 00:01:07;;;;;;;69.55;18.88;;;;;;;;;;5091149;28;20393;-71
2023/01/27 00:03:34;;;;;;;80.45;20.02;;;;;;;;;;5090833;28;20020;-71
2023/01/27 00:06:00;;;;;;;38.15;13.93;;;;;;;;;;5092552;28;20038;-71
2023/01/27 00:08:28;;;;;;;26.70;11.95;;;;;;;;;;5092355;28;20024;-71
2023/01/27 00:13:45;;;;;;;71.63;23.73;;;;;;;;;;5092527;28;20028;-71
2023/01/27 00:16:12;;;;;;;20.63;10.77;;;;;;;;;;5090674;28;20390;-71
2023/01/27 00:18:38;;;;;;;21.98;10.13;;;;;;;;;;5092596;28;20034;-71
2023/01/27 00:26:34;;;;;;;24.95;12.65;;;;;;;;;;5091948;28;20024;-71
2023/01/27 00:29:01;;;;;;;25.00;12.95;;;;;;;;;;5092549;28;20020;-71
2023/01/27 00:34:12;;;;;;;28.30;13.52;;;;;;;;;;5092075;28;20442;-72
2023/01/27 00:36:39;;;;;;;26.65;13.90;;;;;;;;;;5092251;28;20031;-71
2023/01/27 00:39:06;;;;;;;27.13;13.93;;;;;;;;;;5091975;28;20050;-71
2023/01/27 00:41:33;;;;;;;28.45;12.93;;;;;;;;;;5092018;28;20489;-71
2023/01/27 00:44:00;;;;;;;26.40;12.77;;;;;;;;;;5092031;28;20019;-71
2023/01/27 00:46:26;;;;;;;29.40;13.70;;;;;;;;;;5091716;28;20020;-71
2023/01/27 00:48:53;;;;;;;20.35;11.35;;;;;;;;;;5092135;28;20032;-71
2023/01/27 00:51:19;;;;;;;18.92;10.48;;;;;;;;;;5092132;28;20042;-71
2023/01/27 00:53:46;;;;;;;18.45;9.90;;;;;;;;;;5091802;28;20020;-71
2023/01/27 00:56:13;;;;;;;17.85;9.95;;;;;;;;;;5091481;28;20066;-71
2023/01/27 00:58:39;;;;;;;20.52;10.80;;;;;;;;;;5091899;28;20046;-71
2023/01/27 01:01:07;;;;;;;17.80;10.18;;;;;;;;;;5091710;28;20030;-71
2023/01/27 01:03:34;;;;;;;18.58;10.20;;;;;;;;;;5092566;28;20035;-71
2023/01/27 01:06:01;;;;;;;17.85;11.05;;;;;;;;;;5095835;28;20085;-72
2023/01/27 01:08:27;;;;;;;20.40;10.45;;;;;;;;;;5095577;28;20020;-71
2023/01/27 01:10:54;;;;;;;17.35;9.82;;;;;;;;;;5095709;28;20024;-71
2023/01/27 01:13:20;;;;;;;22.05;11.73;;;;;;;;;;5094559;28;20023;-70
2023/01/27 01:15:47;;;;;;;26.75;14.15;;;;;;;;;;5095262;28;20024;-71
2023/01/27 01:18:13;;;;;;;28.10;13.50;;;;;;;;;;5094253;28;20469;-71
2023/01/27 01:20:42;;;;;;;26.08;12.82;;;;;;;;;;5095502;28;20024;-70
2023/01/27 01:23:09;;;;;;;28.83;14.35;;;;;;;;;;5095431;28;20049;-70
2023/01/27 01:25:36;;;;;;;33.97;15.18;;;;;;;;;;5095245;28;20030;-70
2023/01/27 01:28:03;;;;;;;27.08;14.35;;;;;;;;;;5095349;28;20025;-72
2023/01/27 01:30:29;;;;;;;25.60;13.00;;;;;;;;;;5095006;28;20350;-71
2023/01/27 01:32:56;;;;;;;22.98;12.20;;;;;;;;;;5094989;28;20032;-71
2023/01/27 01:35:24;;;;;;;22.65;12.10;;;;;;;;;;5095287;28;20016;-71
2023/01/27 01:37:50;;;;;;;26.02;12.98;;;;;;;;;;5095166;28;20031;-71
2023/01/27 01:40:17;;;;;;;25.00;12.02;;;;;;;;;;5095119;28;20438;-71
2023/01/27 01:42:50;;;;;;;19.05;11.18;;;;;;;;;;5095196;28;20032;-71
2023/01/27 01:45:40;;;;;;;21.63;10.63;;;;;;;;;;5094894;28;20016;-71
2023/01/27 01:48:12;;;;;;;22.75;11.77;;;;;;;;;;5094914;28;20023;-71
2023/01/27 01:50:40;;;;;;;18.80;10.55;;;;;;;;;;5094930;28;20030;-71
2023/01/27 01:53:07;;;;;;;18.77;10.50;;;;;;;;;;5094870;28;20036;-71
2023/01/27 01:55:36;;;;;;;18.77;9.80;;;;;;;;;;5094737;28;20032;-71
2023/01/27 01:58:03;;;;;;;20.88;10.85;;;;;;;;;;5094847;28;20035;-71
2023/01/27 02:00:30;;;;;;;20.13;9.73;;;;;;;;;;5094596;28;20028;-71
2023/01/27 02:02:56;;;;;;;16.58;9.73;;;;;;;;;;5094864;28;20096;-71
2023/01/27 02:05:32;;;;;;;19.02;11.00;;;;;;;;;;5094753;28;20388;-71
2023/01/27 02:08:07;;;;;;;18.73;9.98;;;;;;;;;;5094929;28;20028;-71
2023/01/27 02:10:34;;;;;;;21.15;11.07;;;;;;;;;;5093180;28;20469;-71
2023/01/27 02:13:00;;;;;;;20.70;10.95;;;;;;;;;;5092889;28;20043;-71
2023/01/27 02:15:28;;;;;;;25.88;12.98;;;;;;;;;;5093535;28;20022;-71
2023/01/27 02:17:54;;;;;;;24.25;12.75;;;;;;;;;;5094435;28;20026;-71
2023/01/27 02:20:20;;;;;;;21.63;12.48;;;;;;;;;;5094261;28;20028;-71
2023/01/27 02:23:05;;;;;;;23.23;12.48;;;;;;;;;;5094783;28;20024;-71
2023/01/27 02:25:34;;;;;;;22.85;12.57;;;;;;;;;;5094593;28;20012;-71
2023/01/27 02:28:02;;;;;;;22.33;12.10;;;;;;;;;;5093748;28;20395;-71
2023/01/27 02:30:28;;;;;;;24.38;12.40;;;;;;;;;;5094238;28;20382;-71
2023/01/27 02:32:54;;;;;;;20.77;11.85;;;;;;;;;;5093959;28;20040;-71
2023/01/27 02:35:42;;;;;;;21.17;12.13;;;;;;;;;;5094513;28;20068;-72
2023/01/27 02:38:08;;;;;;;21.67;12.32;;;;;;;;;;5093971;28;20476;-71
2023/01/27 02:40:36;;;;;;;25.30;13.07;;;;;;;;;;5092753;28;20476;-71
2023/01/27 02:43:03;;;;;;;22.20;12.43;;;;;;;;;;5093650;28;20035;-71
2023/01/27 02:45:30;;;;;;;24.90;12.95;;;;;;;;;;5093788;28;20024;-71
2023/01/27 02:47:56;;;;;;;23.85;12.80;;;;;;;;;;5093693;28;20473;-71
2023/01/27 02:50:22;;;;;;;25.02;13.40;;;;;;;;;;5093552;28;20038;-72
2023/01/27 02:52:49;;;;;;;22.20;11.73;;;;;;;;;;5093670;28;20036;-71
2023/01/27 02:55:15;;;;;;;24.98;12.98;;;;;;;;;;5093544;28;20020;-71
2023/01/27 02:57:41;;;;;;;24.95;13.30;;;;;;;;;;5093131;28;20038;-71
2023/01/27 03:00:12;;;;;;;21.73;11.63;;;;;;;;;;5093614;28;20396;-71
2023/01/27 03:02:38;;;;;;;21.40;11.67;;;;;;;;;;5093788;28;20072;-71
2023/01/27 03:05:04;;;;;;;24.42;12.40;;;;;;;;;;5092563;28;20034;-71
2023/01/27 03:07:31;;;;;;;24.27;12.55;;;;;;;;;;5092168;28;20015;-71
2023/01/27 03:09:57;;;;;;;24.02;13.32;;;;;;;;;;5093253;28;20403;-70
2023/01/27 03:12:23;;;;;;;22.55;12.45;;;;;;;;;;5092929;28;20040;-71
2023/01/27 03:20:22;;;;;;;25.20;12.85;;;;;;;;;;5092934;28;20392;-71
2023/01/27 03:22:49;;;;;;;24.35;13.25;;;;;;;;;;5093197;28;20024;-71
2023/01/27 03:25:15;;;;;;;27.30;13.20;;;;;;;;;;5093085;28;20018;-72
2023/01/27 03:27:42;;;;;;;27.77;12.40;;;;;;;;;;5092782;28;20400;-71
2023/01/27 03:30:09;;;;;;;23.70;12.65;;;;;;;;;;5093048;28;20477;-71
2023/01/27 03:32:35;;;;;;;20.83;11.52;;;;;;;;;;5092964;28;20036;-71
2023/01/27 03:35:02;;;;;;;22.58;12.10;;;;;;;;;;5092921;28;20024;-71
2023/01/27 03:48:32;;;;;;;23.80;11.57;;;;;;;;;;5092896;28;20020;-70
2023/01/27 03:50:58;;;;;;;24.73;12.07;;;;;;;;;;5092501;28;20391;-71
2023/01/27 03:53:25;;;;;;;25.42;12.52;;;;;;;;;;5092697;28;20484;-71
2023/01/27 03:55:51;;;;;;;23.73;12.10;;;;;;;;;;5091882;28;20040;-71
2023/01/27 03:58:18;;;;;;;23.50;11.90;;;;;;;;;;5092569;28;20028;-71
2023/01/27 04:00:46;;;;;;;22.27;12.13;;;;;;;;;;5092793;28;20028;-70
2023/01/27 04:08:42;;;;;;;22.10;12.30;;;;;;;;;;5090641;28;20020;-71
2023/01/27 04:13:54;;;;;;;23.58;12.73;;;;;;;;;;5092469;28;20469;-71
2023/01/27 04:16:27;;;;;;;22.48;11.98;;;;;;;;;;5091165;28;20035;-71
2023/01/27 04:18:54;;;;;;;24.90;12.02;;;;;;;;;;5091026;28;20508;-71
2023/01/27 04:21:20;;;;;;;25.65;12.75;;;;;;;;;;5092364;28;20027;-71
2023/01/27 04:23:47;;;;;;;23.52;11.95;;;;;;;;;;5091802;28;20488;-71
2023/01/27 04:26:13;;;;;;;25.67;12.25;;;;;;;;;;5092372;28;20043;-72
2023/01/27 04:28:39;;;;;;;25.55;12.93;;;;;;;;;;5091986;28;20024;-71
2023/01/27 04:31:05;;;;;;;25.02;12.40;;;;;;;;;;5091933;28;20054;-71
2023/01/27 04:33:32;;;;;;;22.77;12.15;;;;;;;;;;5090716;28;20068;-71
2023/01/27 04:35:58;;;;;;;24.52;12.75;;;;;;;;;;5092171;28;20469;-71
2023/01/27 04:38:24;;;;;;;22.02;11.95;;;;;;;;;;5092088;28;20415;-71
2023/01/27 04:40:51;;;;;;;21.85;11.73;;;;;;;;;;5095331;28;20031;-71
2023/01/27 04:43:17;;;;;;;26.00;12.80;;;;;;;;;;5096179;28;20076;-71
2023/01/27 04:45:43;;;;;;;21.55;11.32;;;;;;;;;;5096165;28;20031;-71
2023/01/27 04:48:10;;;;;;;23.13;12.02;;;;;;;;;;5095862;28;20395;-71
2023/01/27 04:50:36;;;;;;;22.85;11.60;;;;;;;;;;5096111;28;20024;-71
2023/01/27 04:53:02;;;;;;;30.02;13.38;;;;;;;;;;5095561;28;20032;-71
2023/01/27 04:55:29;;;;;;;26.70;13.38;;;;;;;;;;5095793;28;20434;-71
2023/01/27 04:57:55;;;;;;;26.23;13.63;;;;;;;;;;5095943;28;20040;-71
2023/01/27 05:00:21;;;;;;;27.30;12.98;;;;;;;;;;5094728;28;20024;-71
2023/01/27 05:02:48;;;;;;;23.67;12.13;;;;;;;;;;5096172;28;20068;-71
2023/01/27 05:05:14;;;;;;;20.63;11.50;;;;;;;;;;5095882;28;20414;-71
2023/01/27 05:07:40;;;;;;;23.15;12.20;;;;;;;;;;5095317;28;20034;-71
2023/01/27 05:10:07;;;;;;;23.98;11.63;;;;;;;;;;5095673;28;20388;-71
2023/01/27 05:12:34;;;;;;;22.48;12.13;;;;;;;;;;5095600;28;20519;-71
2023/01/27 05:15:00;;;;;;;21.38;12.32;;;;;;;;;;5095706;28;20028;-71
2023/01/27 05:17:30;;;;;;;23.75;11.57;;;;;;;;;;5095705;28;20024;-71
2023/01/27 05:19:56;;;;;;;22.30;12.40;;;;;;;;;;5095542;28;20377;-71
2023/01/27 05:22:22;;;;;;;25.50;12.13;;;;;;;;;;5095035;28;20024;-71
2023/01/27 05:24:49;;;;;;;22.55;12.32;;;;;;;;;;5096033;28;20022;-72
2023/01/27 05:27:16;;;;;;;23.55;11.98;;;;;;;;;;5095275;28;20025;-71
2023/01/27 05:29:43;;;;;;;22.48;11.40;;;;;;;;;;5095249;28;20450;-71
2023/01/27 05:32:09;;;;;;;23.02;12.10;;;;;;;;;;5095484;28;20040;-71
2023/01/27 05:34:35;;;;;;;21.45;11.63;;;;;;;;;;5095344;28;20515;-71
2023/01/27 05:37:02;;;;;;;23.67;13.02;;;;;;;;;;5095194;28;20026;-71
2023/01/27 05:39:28;;;;;;;25.92;12.65;;;;;;;;;;5095649;28;20020;-71
2023/01/27 05:41:54;;;;;;;21.38;11.00;;;;;;;;;;5095166;28;20031;-71
2023/01/27 05:44:21;;;;;;;23.35;12.60;;;;;;;;;;5095003;28;20016;-71
2023/01/27 05:46:47;;;;;;;25.50;13.57;;;;;;;;;;5095097;28;20034;-70
2023/01/27 05:49:13;;;;;;;24.33;12.82;;;;;;;;;;5093515;28;20362;-70
2023/01/27 05:51:40;;;;;;;24.40;13.13;;;;;;;;;;5094759;28;20035;-71
2023/01/27 05:54:06;;;;;;;27.98;12.48;;;;;;;;;;5093663;28;20485;-71
2023/01/27 05:56:33;;;;;;;25.13;12.27;;;;;;;;;;5094888;28;20032;-71
2023/01/27 05:58:59;;;;;;;22.48;12.20;;;;;;;;;;5094730;28;20028;-72
2023/01/27 06:01:27;;;;;;;23.60;12.40;;;;;;;;;;5095071;28;20050;-71
2023/01/27 06:03:53;;;;;;;23.58;12.13;;;;;;;;;;5095025;28;20032;-71
2023/01/27 06:06:21;;;;;;;24.77;11.98;;;;;;;;;;5094272;28;20028;-72
2023/01/27 06:08:48;;;;;;;20.52;11.23;;;;;;;;;;5094420;28;20020;-71
2023/01/27 06:11:15;;;;;;;21.23;11.27;;;;;;;;;;5093754;28;20038;-71
2023/01/27 06:13:41;;;;;;;20.73;10.63;;;;;;;;;;5094648;28;20492;-71
2023/01/27 06:16:09;;;;;;;20.55;10.82;;;;;;;;;;5094803;28;20020;-71
2023/01/27 06:18:36;;;;;;;20.27;11.23;;;;;;;;;;5094020;28;20114;-71
2023/01/27 06:21:04;;;;;;;26.05;13.10;;;;;;;;;;5094295;28;20052;-71
2023/01/27 06:23:30;;;;;;;21.45;11.40;;;;;;;;;;5094599;28;20077;-71
2023/01/27 06:26:00;;;;;;;21.50;11.52;;;;;;;;;;5094587;28;20024;-71
2023/01/27 06:28:26;;;;;;;28.58;11.25;;;;;;;;;;5093187;28;20028;-71
2023/01/27 06:30:53;;;;;;;23.02;11.93;;;;;;;;;;5094006;28;20024;-71
2023/01/27 06:33:19;;;;;;;23.77;11.82;;;;;;;;;;5092442;28;20042;-71
2023/01/27 06:35:46;;;;;;;26.02;13.38;;;;;;;;;;5093255;28;20034;-71
2023/01/27 06:38:14;;;;;;;32.50;15.88;;;;;;;;;;5093869;28;20028;-71
2023/01/27 06:40:41;;;;;;;32.55;16.90;;;;;;;;;;5094032;28;20020;-71
2023/01/27 06:43:12;;;;;;;37.05;17.83;;;;;;;;;;5093959;28;20069;-71
2023/01/27 06:45:38;;;;;;;35.60;18.65;;;;;;;;;;5093749;28;20020;-71
2023/01/27 06:48:07;;;;;;;31.52;17.48;;;;;;;;;;5093440;28;20035;-71
2023/01/27 06:50:33;;;;;;;21.70;12.60;;;;;;;;;;5093774;28;20376;-71
2023/01/27 06:53:01;;;;;;;22.50;11.52;;;;;;;;;;5093686;28;20032;-71
2023/01/27 06:55:28;;;;;;;19.52;10.90;;;;;;;;;;5093400;28;20024;-71
2023/01/27 06:57:54;;;;;;;21.35;10.48;;;;;;;;;;5093673;28;20504;-71
2023/01/27 07:00:21;;;;;;;24.77;11.07;;;;;;;;;;5093390;28;20020;-71
2023/01/27 07:02:48;;;;;;;25.63;11.65;;;;;;;;;;5092772;28;20028;-71
2023/01/27 07:05:14;;;;;;;25.77;12.88;;;;;;;;;;5093443;28;20442;-71
2023/01/27 07:07:40;;;;;;;26.88;14.45;;;;;;;;;;5093304;28;20028;-71
2023/01/27 07:10:07;;;;;;;40.28;20.25;;;;;;;;;;5088628;28;20020;-71
2023/01/27 07:12:37;;;;;;;36.47;16.70;;;;;;;;;;5092346;28;20397;-71
2023/01/27 07:15:04;;;;;;;29.38;14.32;;;;;;;;;;5092954;28;20012;-71
2023/01/27 07:17:31;;;;;;;27.90;13.82;;;;;;;;;;5091541;28;20020;-71
2023/01/27 07:19:57;;;;;;;111.45;46.08;;;;;;;;;;5091976;28;20027;-71
2023/01/27 07:22:23;;;;;;;37.90;18.88;;;;;;;;;;5092543;28;20040;-71
2023/01/27 07:24:50;;;;;;;48.05;21.35;;;;;;;;;;5092513;28;20511;-70
2023/01/27 07:27:16;;;;;;;30.90;15.50;;;;;;;;;;5091182;28;20024;-71
2023/01/27 07:29:42;;;;;;;41.05;19.48;;;;;;;;;;5095424;28;20016;-71
2023/01/27 07:32:09;;;;;;;40.40;19.40;;;;;;;;;;5087458;28;20403;-71
2023/01/27 07:34:35;;;;;;;40.97;20.70;;;;;;;;;;5089840;28;20028;-71
2023/01/27 07:37:04;;;;;;;37.70;19.02;;;;;;;;;;5090913;28;20016;-71
2023/01/27 07:39:30;;;;;;;104.63;48.72;;;;;;;;;;5091366;28;20447;-71
2023/01/27 07:41:57;;;;;;;83.53;39.40;;;;;;;;;;5090893;28;20032;-71
2023/01/27 07:44:24;;;;;;;36.63;18.27;;;;;;;;;;5091007;28;20027;-71
2023/01/27 07:46:50;;;;;;;113.72;50.90;;;;;;;;;;5091408;28;20032;-71
2023/01/27 07:49:16;;;;;;;81.57;37.53;;;;;;;;;;5091441;28;20020;-71
2023/01/27 07:51:43;;;;;;;56.85;27.95;;;;;;;;;;5092006;28;20028;-71
2023/01/27 07:54:09;;;;;;;49.63;26.17;;;;;;;;;;5092142;28;20024;-71
2023/01/27 07:56:35;;;;;;;51.60;22.75;;;;;;;;;;5091530;28;20390;-71
2023/01/27 07:59:02;;;;;;;37.28;17.35;;;;;;;;;;5091838;28;20472;-71
2023/01/27 08:01:28;;;;;;;37.50;19.15;;;;;;;;;;5091213;28;20024;-71
2023/01/27 08:03:55;;;;;;;37.80;18.67;;;;;;;;;;5090930;28;20031;-71
2023/01/27 08:06:21;;;;;;;33.80;18.02;;;;;;;;;;5090783;28;20028;-71
2023/01/27 08:08:48;;;;;;;39.33;18.08;;;;;;;;;;5091582;28;20032;-71
2023/01/27 08:11:15;;;;;;;39.03;18.27;;;;;;;;;;5090916;28;20024;-71
2023/01/27 08:13:41;;;;;;;37.53;18.02;;;;;;;;;;5087923;28;20089;-71
2023/01/27 08:16:10;;;;;;;36.00;18.58;;;;;;;;;;5091159;28;20100;-71
2023/01/27 08:18:37;;;;;;;57.22;25.85;;;;;;;;;;5089575;28;20035;-71
2023/01/27 08:21:04;;;;;;;37.60;17.42;;;;;;;;;;5088565;28;20088;-71
2023/01/27 08:23:31;;;;;;;39.72;19.75;;;;;;;;;;5089895;28;20015;-70
2023/01/27 08:25:58;;;;;;;33.53;17.88;;;;;;;;;;5091588;28;20032;-71
2023/01/27 08:28:26;;;;;;;35.15;18.10;;;;;;;;;;5089977;28;20020;-71
2023/01/27 08:30:53;;;;;;;38.88;17.73;;;;;;;;;;5089996;28;20036;-71
2023/01/27 08:33:20;;;;;;;32.95;16.75;;;;;;;;;;5089305;28;20024;-72
2023/01/27 08:35:46;;;;;;;36.60;17.83;;;;;;;;;;5090669;28;20024;-71
2023/01/27 08:38:13;;;;;;;31.60;17.38;;;;;;;;;;5094861;28;20027;-71
2023/01/27 08:40:40;;;;;;;32.58;15.52;;;;;;;;;;5109865;28;20507;-70
2023/01/27 08:43:07;;;;;;;29.38;15.90;;;;;;;;;;5111488;28;20491;-78
2023/01/27 08:45:33;;;;;;;29.40;15.80;;;;;;;;;;5110317;28;20418;-72
2023/01/27 08:48:00;;;;;;;38.03;17.98;;;;;;;;;;5091740;28;20036;-72
2023/01/27 08:50:28;;;;;;;30.98;15.20;;;;;;;;;;5090414;28;20034;-72
2023/01/27 08:52:57;;;;;;;68.00;25.55;;;;;;;;;;5087364;28;20028;-73
2023/01/27 08:55:27;;;;;;;36.58;17.67;;;;;;;;;;5085922;28;21554;-71
2023/01/27 08:57:54;;;;;;;33.90;16.95;;;;;;;;;;5089862;28;20105;-71
2023/01/27 09:00:21;;;;;;;33.42;15.13;;;;;;;;;;5089350;28;20015;-72
2023/01/27 09:02:49;;;;;;;29.33;14.95;;;;;;;;;;5089999;28;20038;-72
2023/01/27 09:05:16;;;;;;;70.18;23.40;;;;;;;;;;5090544;28;20032;-72
2023/01/27 09:07:43;;;;;;;81.57;29.63;;;;;;;;;;5090163;28;20028;-72
2023/01/27 09:10:09;;;;;;;40.15;20.63;;;;;;;;;;5090221;28;20477;-72
2023/01/27 09:12:36;;;;;;;53.40;22.92;;;;;;;;;;5088636;28;20032;-74
2023/01/27 09:15:02;;;;;;;47.65;20.95;;;;;;;;;;5090223;28;20021;-69
2023/01/27 09:17:28;;;;;;;41.40;19.45;;;;;;;;;;5090302;28;20024;-71
2023/01/27 09:19:55;;;;;;;33.40;17.33;;;;;;;;;;5090174;28;20026;-71
2023/01/27 09:22:21;;;;;;;46.00;20.02;;;;;;;;;;5090429;28;20032;-80
2023/01/27 09:24:47;;;;;;;53.13;24.23;;;;;;;;;;5091260;28;20028;-82
2023/01/27 09:27:14;;;;;;;34.10;18.25;;;;;;;;;;5092969;28;20027;-76
2023/01/27 09:29:40;;;;;;;55.80;26.52;;;;;;;;;;5093662;28;20032;-73
2023/01/27 09:32:08;;;;;;;31.73;15.80;;;;;;;;;;5093851;28;20033;-79
2023/01/27 09:34:34;;;;;;;25.25;14.65;;;;;;;;;;5092521;28;20065;-79
2023/01/27 09:37:03;;;;;;;27.65;15.23;;;;;;;;;;5093799;28;20024;-75
2023/01/27 09:39:31;;;;;;;24.90;13.18;;;;;;;;;;5093059;28;20034;-75
2023/01/27 09:42:02;;;;;;;28.70;13.55;;;;;;;;;;5092957;28;20032;-77
2023/01/27 09:44:47;;;;;;;20.95;11.55;;;;;;;;;;5093521;28;20016;-73
2023/01/27 09:47:28;;;;;;;22.63;11.32;;;;;;;;;;5093843;28;20024;-74
2023/01/27 09:50:13;;;;;;;20.15;10.60;;;;;;;;;;5092003;28;20032;-73
2023/01/27 09:52:48;;;;;;;55.83;27.52;;;;;;;;;;5095510;28;20039;-72
2023/01/27 09:55:23;;;;;;;22.65;11.32;;;;;;;;;;5087160;28;20016;-72
2023/01/27 09:58:04;;;;;;;20.63;11.00;;;;;;;;;;5093361;28;20043;-73
2023/01/27 10:00:31;;;;;;;20.80;10.77;;;;;;;;;;5093876;28;20030;-73
2023/01/27 10:03:03;;;;;;;21.05;9.98;;;;;;;;;;5092201;28;20266;-73
2023/01/27 10:05:45;;;;;;;29.70;12.45;;;;;;;;;;5093147;28;20021;-73
2023/01/27 10:08:27;;;;;;;22.27;12.13;;;;;;;;;;5097561;28;20026;-74
2023/01/27 10:10:53;;;;;;;19.00;10.25;;;;;;;;;;5089925;28;20044;-74
2023/01/27 10:13:30;;;;;;;19.20;10.77;;;;;;;;;;5090688;28;20050;-73
2023/01/27 10:15:59;;;;;;;17.02;10.95;;;;;;;;;;5091712;28;20024;-77
2023/01/27 10:18:25;;;;;;;19.83;11.57;;;;;;;;;;5092429;28;20772;-74
2023/01/27 10:20:54;;;;;;;19.98;10.15;;;;;;;;;;5093358;28;20034;-73
2023/01/27 10:23:28;;;;;;;20.55;11.98;;;;;;;;;;5093507;28;20054;-76
2023/01/27 10:26:11;;;;;;;18.67;10.68;;;;;;;;;;5092103;28;20028;-74
2023/01/27 10:28:37;;;;;;;20.10;10.02;;;;;;;;;;5092153;28;20505;-72
2023/01/27 10:31:16;;;;;;;18.35;10.50;;;;;;;;;;5091692;28;20028;-76
2023/01/27 10:33:53;;;;;;;18.77;10.75;;;;;;;;;;5071826;28;20421;-74
2023/01/27 10:36:20;;;;;;;22.67;10.80;;;;;;;;;;5070961;28;20031;-75
2023/01/27 10:38:52;;;;;;;18.80;8.93;;;;;;;;;;5071836;28;20031;-79
2023/01/27 10:41:25;;;;;;;20.85;9.15;;;;;;;;;;5072406;28;20024;-76
2023/01/27 10:44:10;;;;;;;19.23;9.70;;;;;;;;;;5072295;28;20396;-79
2023/01/27 10:46:44;;;;;;;17.33;9.23;;;;;;;;;;5072759;28;20016;-81
2023/01/27 10:49:14;;;;;;;15.40;9.27;;;;;;;;;;5070673;28;20025;-78
2023/01/27 10:51:46;;;;;;;21.08;8.55;;;;;;;;;;5072393;28;20497;-81
2023/01/27 10:54:24;;;;;;;19.48;8.75;;;;;;;;;;5071806;28;20028;-80
2023/01/27 10:57:08;;;;;;;14.95;8.13;;;;;;;;;;5094252;28;20670;-79
2023/01/27 10:59:34;;;;;;;16.15;7.68;;;;;;;;;;5072585;28;20024;-78
2023/01/27 11:02:23;;;;;;;16.40;7.75;;;;;;;;;;5070117;28;20431;-80
2023/01/27 11:04:53;;;;;;;15.98;7.35;;;;;;;;;;5091380;28;20038;-79
2023/01/27 11:07:21;;;;;;;19.85;8.23;;;;;;;;;;5091614;28;20024;-79
2023/01/27 11:09:50;;;;;;;16.63;6.82;;;;;;;;;;5091264;28;20063;-79
2023/01/27 11:12:19;;;;;;;11.88;7.28;;;;;;;;;;5091632;28;20179;-81
2023/01/27 11:14:47;;;;;;;10.07;6.30;;;;;;;;;;5091607;28;20024;-80
2023/01/27 11:17:31;;;;;;;13.23;6.43;;;;;;;;;;5091498;28;20027;-81
2023/01/27 11:20:11;;;;;;;8.93;5.70;;;;;;;;;;5090784;28;20050;-81
2023/01/27 11:22:47;;;;;;;8.60;5.45;;;;;;;;;;5091436;28;20024;-80
2023/01/27 11:25:17;;;;;;;14.57;6.60;;;;;;;;;;5090458;28;20042;-80
2023/01/27 11:27:55;;;;;;;13.25;6.30;;;;;;;;;;5091189;28;20510;-81
2023/01/27 11:30:25;;;;;;;34.33;16.95;;;;;;;;;;5091524;28;20031;-80
2023/01/27 11:33:24;;;;;;;13.13;6.70;;;;;;;;;;5091436;28;20137;-80
2023/01/27 11:35:52;;;;;;;5.95;4.18;;;;;;;;;;5029018;28;20034;-79
2023/01/27 11:38:20;;;;;;;5.80;3.67;;;;;;;;;;5028760;28;20033;-79
2023/01/27 11:40:48;;;;;;;9.13;5.75;;;;;;;;;;5029006;28;20017;-79
2023/01/27 11:43:24;;;;;;;5.93;3.35;;;;;;;;;;5028280;28;20037;-80
2023/01/27 11:45:52;;;;;;;7.53;3.95;;;;;;;;;;5028470;28;20048;-79
2023/01/27 11:48:19;;;;;;;5.72;3.83;;;;;;;;;;5012162;28;20075;-80
2023/01/27 11:50:45;;;;;;;5.00;3.30;;;;;;;;;;5028390;28;20399;-80
2023/01/27 11:53:12;;;;;;;5.82;3.83;;;;;;;;;;5028345;28;20075;-79
2023/01/27 11:56:01;;;;;;;4.90;3.30;;;;;;;;;;5028686;28;20036;-81
2023/01/27 11:58:34;;;;;;;5.20;3.53;;;;;;;;;;5021539;28;20053;-80
2023/01/27 12:01:02;;;;;;;5.82;3.70;;;;;;;;;;5028752;28;20041;-80
2023/01/27 12:03:42;;;;;;;4.30;2.85;;;;;;;;;;5028933;28;20411;-80
2023/01/27 12:06:25;;;;;;;6.32;3.60;;;;;;;;;;5012360;28;20041;-80
2023/01/27 12:08:51;;;;;;;9.80;4.47;;;;;;;;;;5025427;28;20034;-80
2023/01/27 12:11:17;;;;;;;6.15;3.65;;;;;;;;;;5025373;28;20422;-80
2023/01/27 12:14:00;;;;;;;6.70;4.03;;;;;;;;;;5074725;28;20064;-79
2023/01/27 12:16:44;;;;;;;5.70;3.72;;;;;;;;;;5090798;28;20502;-79
2023/01/27 12:19:19;;;;;;;7.40;3.60;;;;;;;;;;5091174;28;20022;-79
2023/01/27 12:21:48;;;;;;;4.03;3.03;;;;;;;;;;5090287;28;20091;-80
2023/01/27 12:24:21;;;;;;;5.30;3.20;;;;;;;;;;5090699;28;20032;-80
2023/01/27 12:26:47;;;;;;;5.63;3.95;;;;;;;;;;5090767;28;20350;-81
2023/01/27 12:29:17;;;;;;;6.22;3.75;;;;;;;;;;5089637;28;20028;-81
2023/01/27 12:31:45;;;;;;;4.20;2.95;;;;;;;;;;5090832;28;20092;-80
2023/01/27 12:34:31;;;;;;;5.60;3.15;;;;;;;;;;5090856;28;20092;-80
2023/01/27 12:36:58;;;;;;;6.68;3.53;;;;;;;;;;5090671;28;20024;-81
2023/01/27 12:39:45;;;;;;;4.43;3.00;;;;;;;;;;5085752;28;20019;-79
2023/01/27 12:42:30;;;;;;;6.20;3.97;;;;;;;;;;5089803;28;20032;-81
2023/01/27 12:44:56;;;;;;;4.53;3.40;;;;;;;;;;5088750;28;20032;-80
2023/01/27 12:47:27;;;;;;;6.00;3.38;;;;;;;;;;5090508;28;20388;-80
2023/01/27 12:50:12;;;;;;;9.55;4.20;;;;;;;;;;5090388;28;20016;-81
2023/01/27 12:52:39;;;;;;;5.07;2.97;;;;;;;;;;5088176;28;20042;-81
2023/01/27 12:55:05;;;;;;;5.45;3.53;;;;;;;;;;5090092;28;20477;-76
2023/01/27 12:57:32;;;;;;;5.78;3.65;;;;;;;;;;5089940;28;20048;-72
2023/01/27 12:59:58;;;;;;;6.13;3.45;;;;;;;;;;5091067;28;20028;-79
2023/01/27 13:02:26;;;;;;;5.97;3.05;;;;;;;;;;5094377;28;20024;-76
2023/01/27 13:05:04;;;;;;;6.68;4.00;;;;;;;;;;5092628;28;20381;-76
2023/01/27 13:07:57;;;;;;;8.02;3.83;;;;;;;;;;5094479;28;20016;-75
2023/01/27 13:10:26;;;;;;;5.30;3.58;;;;;;;;;;5091357;28;20035;-73
2023/01/27 13:13:00;;;;;;;4.57;2.92;;;;;;;;;;5093729;28;20528;-78
2023/01/27 13:15:28;;;;;;;3.47;2.47;;;;;;;;;;5093170;28;20024;-78
2023/01/27 13:17:58;;;;;;;4.30;2.58;;;;;;;;;;5093806;28;20046;-77
2023/01/27 13:20:28;;;;;;;5.53;3.10;;;;;;;;;;5092308;28;20715;-77
2023/01/27 13:22:59;;;;;;;4.72;2.92;;;;;;;;;;5092429;28;20035;-78
2023/01/27 13:25:42;;;;;;;6.65;3.95;;;;;;;;;;5073479;28;20025;-78
2023/01/27 13:28:13;;;;;;;6.70;3.60;;;;;;;;;;5080231;28;20022;-78
2023/01/27 13:30:41;;;;;;;4.55;2.67;;;;;;;;;;5093899;28;20031;-78
2023/01/27 13:33:27;;;;;;;4.20;2.40;;;;;;;;;;5092955;28;20062;-78
2023/01/27 13:36:15;;;;;;;9.13;2.80;;;;;;;;;;5093836;28;20054;-78
2023/01/27 13:39:07;;;;;;;7.07;3.35;;;;;;;;;;5093851;28;20012;-78
2023/01/27 13:41:41;;;;;;;4.53;2.40;;;;;;;;;;5101317;28;20081;-78
2023/01/27 13:44:24;;;;;;;5.28;3.30;;;;;;;;;;5113307;28;20030;-73
2023/01/27 13:46:50;;;;;;;4.30;2.00;;;;;;;;;;5104310;28;20024;-73
2023/01/27 13:49:29;;;;;;;4.88;2.92;;;;;;;;;;5092890;28;20361;-73
2023/01/27 13:51:55;;;;;;;5.20;2.80;;;;;;;;;;5091580;28;20028;-77
2023/01/27 13:54:24;;;;;;;4.78;3.17;;;;;;;;;;5092785;28;20024;-77
2023/01/27 13:56:53;;;;;;;5.05;2.97;;;;;;;;;;5093538;28;20048;-79
2023/01/27 13:59:22;;;;;;;3.50;2.60;;;;;;;;;;5093628;28;20050;-80
2023/01/27 14:02:07;;;;;;;3.75;2.28;;;;;;;;;;5093651;28;20422;-74
2023/01/27 14:04:37;;;;;;;4.60;3.03;;;;;;;;;;5092869;28;20036;-71
2023/01/27 14:07:13;;;;;;;4.47;2.63;;;;;;;;;;5093471;28;20506;-75
2023/01/27 14:09:45;;;;;;;5.40;2.80;;;;;;;;;;5093275;28;20016;-75
2023/01/27 14:12:25;;;;;;;5.72;3.15;;;;;;;;;;5092163;28;20051;-74
2023/01/27 14:15:10;;;;;;;4.75;2.70;;;;;;;;;;5093088;28;20423;-77
2023/01/27 14:17:42;;;;;;;3.80;2.70;;;;;;;;;;5092759;28;20488;-73
2023/01/27 14:20:18;;;;;;;6.32;2.95;;;;;;;;;;5092804;28;20028;-73
2023/01/27 14:23:03;;;;;;;3.22;2.20;;;;;;;;;;5092834;28;20050;-76
2023/01/27 14:25:29;;;;;;;3.78;2.47;;;;;;;;;;5093196;28;20035;-75
2023/01/27 14:28:02;;;;;;;5.00;2.78;;;;;;;;;;5112995;28;20028;-75
2023/01/27 14:30:35;;;;;;;5.57;3.00;;;;;;;;;;5113226;28;20032;-75
2023/01/27 14:33:11;;;;;;;5.00;3.00;;;;;;;;;;5112582;28;20028;-75
2023/01/27 14:35:46;;;;;;;6.30;3.15;;;;;;;;;;5113226;28;20016;-75
2023/01/27 14:38:13;;;;;;;5.05;3.30;;;;;;;;;;5092295;28;20065;-75
2023/01/27 14:40:59;;;;;;;5.22;3.30;;;;;;;;;;5092629;28;20058;-75
2023/01/27 14:43:28;;;;;;;6.25;3.10;;;;;;;;;;5082258;28;20038;-75
2023/01/27 14:46:03;;;;;;;5.93;3.17;;;;;;;;;;5092657;28;20031;-75
2023/01/27 14:48:50;;;;;;;5.60;3.28;;;;;;;;;;5090770;28;20034;-75
2023/01/27 14:51:22;;;;;;;6.50;3.10;;;;;;;;;;5091613;28;20042;-75
2023/01/27 14:54:07;;;;;;;4.50;2.55;;;;;;;;;;5090245;28;20042;-75
2023/01/27 14:56:52;;;;;;;7.07;2.50;;;;;;;;;;5088525;28;20154;-76
2023/01/27 14:59:37;;;;;;;4.13;2.45;;;;;;;;;;5091998;28;20036;-73
2023/01/27 15:02:19;;;;;;;6.45;3.17;;;;;;;;;;5091643;28;20020;-73
2023/01/27 15:04:45;;;;;;;5.90;3.80;;;;;;;;;;5091525;28;20030;-73
2023/01/27 15:07:18;;;;;;;4.10;3.03;;;;;;;;;;5091764;28;20056;-71
2023/01/27 15:10:02;;;;;;;5.75;3.00;;;;;;;;;;5091597;28;20500;-74
2023/01/27 15:12:58;;;;;;;7.68;4.15;;;;;;;;;;5091253;28;20024;-68
2023/01/27 15:15:45;;;;;;;5.70;3.40;;;;;;;;;;5013456;28;20038;-77